Lubbock Preston Smith International Airport
KLBB : now visible

Airfield :











YOU CAN JOIN US ON...

 
LOGIN :

Register | Disclaimer

   EN    FR    IT 

 









Legend :    VFR   Marginal VFR   IFR   Intensive IFR   Very Intensive IFR
Visi :
Ceiling :
>= 8 km
>= 3000ft
5 to 8 km
1000 to 3000 ft
1500m to 5 km
500 to 1000 ft
800 to 1500m
200 to 500 ft
< 800m
< 200 ft
Symbols :   Thunderstorms  Fog  Heavy snow  Heavy precipitations  Wind > 20 kt






- Airport Elevation : 3282 ft
- IATA code : LBB


KLBB - Lubbock Preston Smith International

CURRENT METAR :
  • 070053Z 18014KT 10SM FEW100 FEW160 BKN210 OVC250 21/13 A2992 RMK AO2 SLP097 OVC LYR THN T02060128

EXPIRED METARs :
  • 062353Z 17014KT 10SM FEW110 FEW160 BKN220 OVC260 22/12 A2991 RMK AO2 SLP091 BINOVC 60000 T02220122 10250 20183 55005
  • 062253Z 18014KT 10SM FEW040 SCT180 BKN220 BKN260 23/11 A2991 RMK AO2 SLP088 T02330111
  • 062153Z 17018KT 10SM FEW040 FEW120 SCT220 OVC260 24/13 A2990 RMK AO2 SLP085 OVC LYR THN T02440128

TAF KLBB
Valid from the 07 at 00:00 until the 08 at 00:00 UTC


062329Z 0700/0724 19011KT P6SM BKN250
FM071000 26011KT P6SM SCT250



MET'MAP, your aeronautical weather chart ! - Copyright ORBIFLY December 2007 - Disclaimer

ORBIFLY MET'MAP TEAM :

Programming & Development : Alexandra Zaïnal
Concept & original design : Baudouin d'Aumeries
Assistance for programming : Marc-Olivier Méhu
Technical & hardware support : Manuel Goepfert

Contact : metmap@orbifly.com




SOURCES & CREDITS :

   NOAA       Earth
Advisory